sensor_id;sensor_type;location;lat;lon;timestamp;P1;durP1;ratioP1;P2;durP2;ratioP2
56927;SDS011;60850;52.502;13.426;2023-06-14T00:01:34;7.82;;;4.53;;
56927;SDS011;60850;52.502;13.426;2023-06-14T00:04:04;6.47;;;3.08;;
56927;SDS011;60850;52.502;13.426;2023-06-14T00:06:34;4.32;;;2.35;;
56927;SDS011;60850;52.502;13.426;2023-06-14T00:09:01;5.65;;;2.92;;
56927;SDS011;60850;52.502;13.426;2023-06-14T00:11:28;4.32;;;2.60;;
56927;SDS011;60850;52.502;13.426;2023-06-14T00:13:55;7.55;;;3.33;;
56927;SDS011;60850;52.502;13.426;2023-06-14T00:16:23;3.45;;;2.60;;
56927;SDS011;60850;52.502;13.426;2023-06-14T00:18:49;8.75;;;2.63;;
56927;SDS011;60850;52.502;13.426;2023-06-14T00:21:19;3.80;;;2.50;;
56927;SDS011;60850;52.502;13.426;2023-06-14T00:23:45;5.65;;;2.47;;
56927;SDS011;60850;52.502;13.426;2023-06-14T00:26:13;3.67;;;2.75;;
56927;SDS011;60850;52.502;13.426;2023-06-14T00:28:40;6.75;;;2.60;;
56927;SDS011;60850;52.502;13.426;2023-06-14T00:31:07;3.38;;;2.22;;
56927;SDS011;60850;52.502;13.426;2023-06-14T00:33:34;5.47;;;2.78;;
56927;SDS011;60850;52.502;13.426;2023-06-14T00:36:02;6.63;;;2.70;;
56927;SDS011;60850;52.502;13.426;2023-06-14T00:38:30;5.82;;;2.53;;
56927;SDS011;60850;52.502;13.426;2023-06-14T00:40:57;5.72;;;2.75;;
56927;SDS011;60850;52.502;13.426;2023-06-14T00:43:24;4.53;;;2.75;;
56927;SDS011;60850;52.502;13.426;2023-06-14T00:45:51;5.15;;;2.78;;
56927;SDS011;60850;52.502;13.426;2023-06-14T00:48:18;3.78;;;2.70;;
56927;SDS011;60850;52.502;13.426;2023-06-14T00:50:46;3.20;;;2.58;;
56927;SDS011;60850;52.502;13.426;2023-06-14T00:53:14;6.40;;;2.78;;
56927;SDS011;60850;52.502;13.426;2023-06-14T00:55:44;4.13;;;3.00;;
56927;SDS011;60850;52.502;13.426;2023-06-14T00:58:11;7.63;;;2.83;;
56927;SDS011;60850;52.502;13.426;2023-06-14T01:00:38;4.53;;;3.17;;
56927;SDS011;60850;52.502;13.426;2023-06-14T01:03:05;4.93;;;3.10;;
56927;SDS011;60850;52.502;13.426;2023-06-14T01:05:33;4.90;;;3.25;;
56927;SDS011;60850;52.502;13.426;2023-06-14T01:08:05;6.35;;;3.42;;
56927;SDS011;60850;52.502;13.426;2023-06-14T01:10:45;5.20;;;3.70;;
56927;SDS011;60850;52.502;13.426;2023-06-14T01:13:19;4.10;;;3.05;;
56927;SDS011;60850;52.502;13.426;2023-06-14T01:15:50;4.65;;;3.20;;
56927;SDS011;60850;52.502;13.426;2023-06-14T01:18:17;5.68;;;3.47;;
56927;SDS011;60850;52.502;13.426;2023-06-14T01:20:45;6.13;;;3.83;;
56927;SDS011;60850;52.502;13.426;2023-06-14T01:23:16;4.45;;;3.75;;
56927;SDS011;60850;52.502;13.426;2023-06-14T01:25:43;6.90;;;3.65;;
56927;SDS011;60850;52.502;13.426;2023-06-14T01:28:10;7.05;;;3.90;;
56927;SDS011;60850;52.502;13.426;2023-06-14T01:30:40;8.32;;;3.90;;
56927;SDS011;60850;52.502;13.426;2023-06-14T01:33:10;8.18;;;4.20;;
56927;SDS011;60850;52.502;13.426;2023-06-14T01:35:58;6.53;;;4.18;;
56927;SDS011;60850;52.502;13.426;2023-06-14T01:38:27;7.57;;;4.15;;
56927;SDS011;60850;52.502;13.426;2023-06-14T01:40:56;6.18;;;4.57;;
56927;SDS011;60850;52.502;13.426;2023-06-14T01:43:25;4.72;;;4.05;;
56927;SDS011;60850;52.502;13.426;2023-06-14T01:45:52;5.78;;;3.63;;
56927;SDS011;60850;52.502;13.426;2023-06-14T01:48:20;7.60;;;4.22;;
56927;SDS011;60850;52.502;13.426;2023-06-14T01:50:48;7.35;;;3.72;;
56927;SDS011;60850;52.502;13.426;2023-06-14T01:53:15;7.18;;;3.97;;
56927;SDS011;60850;52.502;13.426;2023-06-14T01:55:44;5.72;;;4.03;;
56927;SDS011;60850;52.502;13.426;2023-06-14T01:58:13;5.93;;;3.80;;
56927;SDS011;60850;52.502;13.426;2023-06-14T02:00:41;7.93;;;4.38;;
56927;SDS011;60850;52.502;13.426;2023-06-14T02:03:10;8.13;;;3.85;;
56927;SDS011;60850;52.502;13.426;2023-06-14T02:05:38;5.38;;;4.00;;
56927;SDS011;60850;52.502;13.426;2023-06-14T02:08:05;6.07;;;4.28;;
56927;SDS011;60850;52.502;13.426;2023-06-14T02:10:33;8.68;;;4.45;;
56927;SDS011;60850;52.502;13.426;2023-06-14T02:13:01;5.20;;;3.70;;
56927;SDS011;60850;52.502;13.426;2023-06-14T02:15:28;5.60;;;3.88;;
56927;SDS011;60850;52.502;13.426;2023-06-14T02:17:59;6.30;;;4.20;;
56927;SDS011;60850;52.502;13.426;2023-06-14T02:20:27;6.72;;;4.28;;
56927;SDS011;60850;52.502;13.426;2023-06-14T02:22:55;6.60;;;4.32;;
56927;SDS011;60850;52.502;13.426;2023-06-14T02:25:22;7.82;;;4.05;;
56927;SDS011;60850;52.502;13.426;2023-06-14T02:27:49;7.05;;;4.40;;
56927;SDS011;60850;52.502;13.426;2023-06-14T02:30:18;7.30;;;4.82;;
56927;SDS011;60850;52.502;13.426;2023-06-14T02:32:45;7.32;;;4.68;;
56927;SDS011;60850;52.502;13.426;2023-06-14T02:35:14;8.45;;;4.80;;
56927;SDS011;60850;52.502;13.426;2023-06-14T02:37:40;7.18;;;4.35;;
56927;SDS011;60850;52.502;13.426;2023-06-14T02:40:08;8.43;;;4.57;;
56927;SDS011;60850;52.502;13.426;2023-06-14T02:42:36;7.53;;;4.53;;
56927;SDS011;60850;52.502;13.426;2023-06-14T02:45:03;7.45;;;4.60;;
56927;SDS011;60850;52.502;13.426;2023-06-14T02:47:32;6.32;;;4.90;;
56927;SDS011;60850;52.502;13.426;2023-06-14T02:49:59;6.88;;;4.90;;
56927;SDS011;60850;52.502;13.426;2023-06-14T02:52:27;7.03;;;4.45;;
56927;SDS011;60850;52.502;13.426;2023-06-14T02:54:54;8.15;;;4.63;;
56927;SDS011;60850;52.502;13.426;2023-06-14T02:57:21;7.25;;;4.68;;
56927;SDS011;60850;52.502;13.426;2023-06-14T02:59:48;8.68;;;4.85;;
56927;SDS011;60850;52.502;13.426;2023-06-14T03:02:15;6.63;;;4.53;;
56927;SDS011;60850;52.502;13.426;2023-06-14T03:04:44;7.82;;;4.85;;
56927;SDS011;60850;52.502;13.426;2023-06-14T03:07:12;7.40;;;5.00;;
56927;SDS011;60850;52.502;13.426;2023-06-14T03:09:45;8.68;;;5.25;;
56927;SDS011;60850;52.502;13.426;2023-06-14T03:12:12;9.45;;;5.32;;
56927;SDS011;60850;52.502;13.426;2023-06-14T03:14:40;7.85;;;5.30;;
56927;SDS011;60850;52.502;13.426;2023-06-14T03:17:07;7.22;;;4.60;;
56927;SDS011;60850;52.502;13.426;2023-06-14T03:19:35;6.55;;;4.47;;
56927;SDS011;60850;52.502;13.426;2023-06-14T03:22:04;7.82;;;5.07;;
56927;SDS011;60850;52.502;13.426;2023-06-14T03:24:32;6.53;;;4.70;;
56927;SDS011;60850;52.502;13.426;2023-06-14T03:27:02;8.77;;;5.45;;
56927;SDS011;60850;52.502;13.426;2023-06-14T03:29:29;7.05;;;4.72;;
56927;SDS011;60850;52.502;13.426;2023-06-14T03:31:57;7.50;;;4.68;;
56927;SDS011;60850;52.502;13.426;2023-06-14T03:34:25;9.48;;;5.45;;
56927;SDS011;60850;52.502;13.426;2023-06-14T03:36:52;8.32;;;5.38;;
56927;SDS011;60850;52.502;13.426;2023-06-14T03:39:20;8.25;;;4.95;;
56927;SDS011;60850;52.502;13.426;2023-06-14T03:41:47;9.88;;;6.22;;
56927;SDS011;60850;52.502;13.426;2023-06-14T03:44:15;6.57;;;5.00;;
56927;SDS011;60850;52.502;13.426;2023-06-14T03:46:44;9.98;;;5.30;;
56927;SDS011;60850;52.502;13.426;2023-06-14T03:49:11;7.75;;;5.13;;
56927;SDS011;60850;52.502;13.426;2023-06-14T03:51:38;8.02;;;5.10;;
56927;SDS011;60850;52.502;13.426;2023-06-14T03:54:06;5.85;;;4.93;;
56927;SDS011;60850;52.502;13.426;2023-06-14T03:56:34;6.82;;;4.97;;
56927;SDS011;60850;52.502;13.426;2023-06-14T03:59:01;7.60;;;5.20;;
56927;SDS011;60850;52.502;13.426;2023-06-14T04:01:28;13.50;;;6.80;;
56927;SDS011;60850;52.502;13.426;2023-06-14T04:03:56;12.45;;;7.00;;
56927;SDS011;60850;52.502;13.426;2023-06-14T04:06:24;9.30;;;5.97;;
56927;SDS011;60850;52.502;13.426;2023-06-14T04:08:57;11.80;;;6.20;;
56927;SDS011;60850;52.502;13.426;2023-06-14T04:11:29;8.25;;;5.25;;
56927;SDS011;60850;52.502;13.426;2023-06-14T04:13:59;8.80;;;4.65;;
56927;SDS011;60850;52.502;13.426;2023-06-14T04:16:27;9.73;;;5.72;;
56927;SDS011;60850;52.502;13.426;2023-06-14T04:18:54;7.35;;;5.07;;
56927;SDS011;60850;52.502;13.426;2023-06-14T04:21:23;9.90;;;5.97;;
56927;SDS011;60850;52.502;13.426;2023-06-14T04:23:53;8.50;;;5.50;;
56927;SDS011;60850;52.502;13.426;2023-06-14T04:26:21;7.57;;;5.22;;
56927;SDS011;60850;52.502;13.426;2023-06-14T04:28:55;12.93;;;7.07;;
56927;SDS011;60850;52.502;13.426;2023-06-14T04:31:29;11.32;;;5.72;;
56927;SDS011;60850;52.502;13.426;2023-06-14T04:33:58;8.85;;;5.47;;
56927;SDS011;60850;52.502;13.426;2023-06-14T04:36:26;8.52;;;6.07;;
56927;SDS011;60850;52.502;13.426;2023-06-14T04:38:53;10.57;;;5.78;;
56927;SDS011;60850;52.502;13.426;2023-06-14T04:41:20;9.80;;;5.38;;
56927;SDS011;60850;52.502;13.426;2023-06-14T04:43:48;8.30;;;5.75;;
56927;SDS011;60850;52.502;13.426;2023-06-14T04:46:15;10.25;;;5.95;;
56927;SDS011;60850;52.502;13.426;2023-06-14T04:48:45;7.97;;;5.28;;
56927;SDS011;60850;52.502;13.426;2023-06-14T04:51:13;11.40;;;5.93;;
56927;SDS011;60850;52.502;13.426;2023-06-14T04:53:40;10.93;;;6.13;;
56927;SDS011;60850;52.502;13.426;2023-06-14T04:56:09;8.30;;;5.82;;
56927;SDS011;60850;52.502;13.426;2023-06-14T04:58:36;11.60;;;5.30;;
56927;SDS011;60850;52.502;13.426;2023-06-14T05:01:03;8.70;;;5.75;;
56927;SDS011;60850;52.502;13.426;2023-06-14T05:03:30;7.97;;;5.45;;
56927;SDS011;60850;52.502;13.426;2023-06-14T05:06:01;11.48;;;5.07;;
56927;SDS011;60850;52.502;13.426;2023-06-14T05:08:28;10.38;;;5.60;;
56927;SDS011;60850;52.502;13.426;2023-06-14T05:10:55;14.18;;;5.40;;
56927;SDS011;60850;52.502;13.426;2023-06-14T05:13:22;10.35;;;5.68;;
56927;SDS011;60850;52.502;13.426;2023-06-14T05:15:49;8.43;;;5.70;;
56927;SDS011;60850;52.502;13.426;2023-06-14T05:18:17;12.23;;;5.60;;
56927;SDS011;60850;52.502;13.426;2023-06-14T05:20:44;7.28;;;5.13;;
56927;SDS011;60850;52.502;13.426;2023-06-14T05:23:12;7.70;;;5.55;;
56927;SDS011;60850;52.502;13.426;2023-06-14T05:25:41;11.25;;;5.68;;
56927;SDS011;60850;52.502;13.426;2023-06-14T05:28:09;8.80;;;5.40;;
56927;SDS011;60850;52.502;13.426;2023-06-14T05:30:37;10.27;;;5.28;;
56927;SDS011;60850;52.502;13.426;2023-06-14T05:33:04;13.20;;;5.25;;
56927;SDS011;60850;52.502;13.426;2023-06-14T05:35:31;8.38;;;5.50;;
56927;SDS011;60850;52.502;13.426;2023-06-14T05:37:58;11.02;;;5.20;;
56927;SDS011;60850;52.502;13.426;2023-06-14T05:40:27;9.02;;;4.78;;
56927;SDS011;60850;52.502;13.426;2023-06-14T05:42:53;6.47;;;5.50;;
56927;SDS011;60850;52.502;13.426;2023-06-14T05:45:21;9.35;;;5.68;;
56927;SDS011;60850;52.502;13.426;2023-06-14T05:47:47;7.55;;;5.13;;
56927;SDS011;60850;52.502;13.426;2023-06-14T05:50:15;12.10;;;5.32;;
56927;SDS011;60850;52.502;13.426;2023-06-14T05:52:42;7.00;;;5.70;;
56927;SDS011;60850;52.502;13.426;2023-06-14T05:55:10;10.00;;;6.03;;
56927;SDS011;60850;52.502;13.426;2023-06-14T05:57:38;9.13;;;6.30;;
56927;SDS011;60850;52.502;13.426;2023-06-14T06:00:06;9.52;;;5.47;;
56927;SDS011;60850;52.502;13.426;2023-06-14T06:05:06;9.38;;;5.30;;
56927;SDS011;60850;52.502;13.426;2023-06-14T06:07:33;7.90;;;5.60;;
56927;SDS011;60850;52.502;13.426;2023-06-14T06:10:01;8.77;;;5.60;;
56927;SDS011;60850;52.502;13.426;2023-06-14T06:12:27;8.27;;;5.60;;
56927;SDS011;60850;52.502;13.426;2023-06-14T06:14:56;12.90;;;5.63;;
56927;SDS011;60850;52.502;13.426;2023-06-14T06:17:23;8.27;;;5.25;;
56927;SDS011;60850;52.502;13.426;2023-06-14T06:19:51;9.65;;;5.30;;
56927;SDS011;60850;52.502;13.426;2023-06-14T06:22:18;7.78;;;5.32;;
56927;SDS011;60850;52.502;13.426;2023-06-14T06:24:45;8.73;;;4.85;;
56927;SDS011;60850;52.502;13.426;2023-06-14T06:27:12;11.90;;;5.57;;
56927;SDS011;60850;52.502;13.426;2023-06-14T06:29:41;10.52;;;5.07;;
56927;SDS011;60850;52.502;13.426;2023-06-14T06:32:10;7.97;;;4.70;;
56927;SDS011;60850;52.502;13.426;2023-06-14T06:34:37;7.18;;;4.75;;
56927;SDS011;60850;52.502;13.426;2023-06-14T06:37:04;14.18;;;5.93;;
56927;SDS011;60850;52.502;13.426;2023-06-14T06:39:33;6.70;;;4.97;;
56927;SDS011;60850;52.502;13.426;2023-06-14T06:42:00;8.30;;;5.30;;
56927;SDS011;60850;52.502;13.426;2023-06-14T06:44:27;9.13;;;5.53;;
56927;SDS011;60850;52.502;13.426;2023-06-14T06:46:54;13.05;;;5.75;;
56927;SDS011;60850;52.502;13.426;2023-06-14T06:49:22;9.13;;;4.82;;
56927;SDS011;60850;52.502;13.426;2023-06-14T06:51:59;9.60;;;5.15;;
56927;SDS011;60850;52.502;13.426;2023-06-14T06:54:28;10.95;;;5.55;;
56927;SDS011;60850;52.502;13.426;2023-06-14T06:56:55;8.02;;;5.53;;
56927;SDS011;60850;52.502;13.426;2023-06-14T06:59:22;9.15;;;5.75;;
56927;SDS011;60850;52.502;13.426;2023-06-14T07:01:49;9.65;;;5.50;;
56927;SDS011;60850;52.502;13.426;2023-06-14T07:04:16;9.65;;;5.68;;
56927;SDS011;60850;52.502;13.426;2023-06-14T07:06:45;7.40;;;5.53;;
56927;SDS011;60850;52.502;13.426;2023-06-14T07:09:12;8.23;;;5.10;;
56927;SDS011;60850;52.502;13.426;2023-06-14T07:11:41;7.60;;;5.10;;
56927;SDS011;60850;52.502;13.426;2023-06-14T07:14:09;8.25;;;5.10;;
56927;SDS011;60850;52.502;13.426;2023-06-14T07:16:36;7.93;;;4.95;;
56927;SDS011;60850;52.502;13.426;2023-06-14T07:19:04;9.55;;;4.63;;
56927;SDS011;60850;52.502;13.426;2023-06-14T07:21:41;7.22;;;5.03;;
56927;SDS011;60850;52.502;13.426;2023-06-14T07:24:09;10.70;;;5.28;;
56927;SDS011;60850;52.502;13.426;2023-06-14T07:26:37;11.00;;;4.72;;
56927;SDS011;60850;52.502;13.426;2023-06-14T07:29:04;6.93;;;4.55;;
56927;SDS011;60850;52.502;13.426;2023-06-14T07:31:31;7.90;;;4.35;;
56927;SDS011;60850;52.502;13.426;2023-06-14T07:33:58;13.18;;;5.38;;
56927;SDS011;60850;52.502;13.426;2023-06-14T07:36:25;7.97;;;4.95;;
56927;SDS011;60850;52.502;13.426;2023-06-14T07:38:52;12.98;;;4.93;;
56927;SDS011;60850;52.502;13.426;2023-06-14T07:41:20;11.98;;;4.75;;
56927;SDS011;60850;52.502;13.426;2023-06-14T07:43:47;5.78;;;4.53;;
56927;SDS011;60850;52.502;13.426;2023-06-14T07:46:15;7.03;;;4.50;;
56927;SDS011;60850;52.502;13.426;2023-06-14T07:48:42;8.93;;;4.63;;
56927;SDS011;60850;52.502;13.426;2023-06-14T07:51:09;6.82;;;4.22;;
56927;SDS011;60850;52.502;13.426;2023-06-14T07:53:36;10.38;;;4.30;;
56927;SDS011;60850;52.502;13.426;2023-06-14T07:56:03;8.27;;;4.45;;
56927;SDS011;60850;52.502;13.426;2023-06-14T07:58:31;7.53;;;4.55;;
56927;SDS011;60850;52.502;13.426;2023-06-14T08:00:58;6.20;;;4.25;;
56927;SDS011;60850;52.502;13.426;2023-06-14T08:03:29;10.82;;;4.60;;
56927;SDS011;60850;52.502;13.426;2023-06-14T08:05:56;8.95;;;4.30;;
56927;SDS011;60850;52.502;13.426;2023-06-14T08:08:23;5.97;;;4.10;;
56927;SDS011;60850;52.502;13.426;2023-06-14T08:10:50;8.40;;;4.25;;
56927;SDS011;60850;52.502;13.426;2023-06-14T08:13:17;6.47;;;4.10;;
56927;SDS011;60850;52.502;13.426;2023-06-14T08:15:45;5.97;;;4.03;;
56927;SDS011;60850;52.502;13.426;2023-06-14T08:18:12;6.82;;;4.40;;
56927;SDS011;60850;52.502;13.426;2023-06-14T08:20:39;5.45;;;3.58;;
56927;SDS011;60850;52.502;13.426;2023-06-14T08:23:06;8.45;;;3.65;;
56927;SDS011;60850;52.502;13.426;2023-06-14T08:25:34;6.47;;;3.95;;
56927;SDS011;60850;52.502;13.426;2023-06-14T08:28:01;10.90;;;4.97;;
56927;SDS011;60850;52.502;13.426;2023-06-14T08:30:28;6.88;;;3.70;;
56927;SDS011;60850;52.502;13.426;2023-06-14T08:32:57;7.82;;;4.43;;
56927;SDS011;60850;52.502;13.426;2023-06-14T08:35:24;6.32;;;3.60;;
56927;SDS011;60850;52.502;13.426;2023-06-14T08:37:51;8.15;;;3.80;;
56927;SDS011;60850;52.502;13.426;2023-06-14T08:40:18;7.85;;;3.97;;
56927;SDS011;60850;52.502;13.426;2023-06-14T08:42:47;5.43;;;3.35;;
56927;SDS011;60850;52.502;13.426;2023-06-14T08:45:18;10.13;;;3.35;;
56927;SDS011;60850;52.502;13.426;2023-06-14T08:47:45;3.45;;;2.85;;
56927;SDS011;60850;52.502;13.426;2023-06-14T08:50:18;7.65;;;3.55;;
56927;SDS011;60850;52.502;13.426;2023-06-14T08:52:48;9.98;;;3.65;;
56927;SDS011;60850;52.502;13.426;2023-06-14T08:55:18;7.30;;;3.38;;
56927;SDS011;60850;52.502;13.426;2023-06-14T08:57:46;5.22;;;3.35;;
56927;SDS011;60850;52.502;13.426;2023-06-14T09:00:14;6.53;;;3.25;;
56927;SDS011;60850;52.502;13.426;2023-06-14T09:02:42;6.07;;;3.30;;
56927;SDS011;60850;52.502;13.426;2023-06-14T09:05:10;5.05;;;3.30;;
56927;SDS011;60850;52.502;13.426;2023-06-14T09:07:40;6.45;;;3.90;;
56927;SDS011;60850;52.502;13.426;2023-06-14T09:10:08;4.65;;;2.95;;
56927;SDS011;60850;52.502;13.426;2023-06-14T09:12:37;6.05;;;3.92;;
56927;SDS011;60850;52.502;13.426;2023-06-14T09:15:05;8.65;;;3.58;;
56927;SDS011;60850;52.502;13.426;2023-06-14T09:17:34;5.78;;;3.35;;
56927;SDS011;60850;52.502;13.426;2023-06-14T09:20:01;4.95;;;3.35;;
56927;SDS011;60850;52.502;13.426;2023-06-14T09:22:31;7.38;;;3.33;;
56927;SDS011;60850;52.502;13.426;2023-06-14T09:25:00;7.15;;;3.10;;
56927;SDS011;60850;52.502;13.426;2023-06-14T09:27:27;4.40;;;2.80;;
56927;SDS011;60850;52.502;13.426;2023-06-14T09:29:55;3.58;;;3.05;;
56927;SDS011;60850;52.502;13.426;2023-06-14T09:32:22;5.72;;;2.90;;
56927;SDS011;60850;52.502;13.426;2023-06-14T09:34:49;6.72;;;3.20;;
56927;SDS011;60850;52.502;13.426;2023-06-14T09:37:26;6.15;;;3.40;;
56927;SDS011;60850;52.502;13.426;2023-06-14T09:39:54;5.25;;;3.20;;
56927;SDS011;60850;52.502;13.426;2023-06-14T09:42:23;6.10;;;3.42;;
56927;SDS011;60850;52.502;13.426;2023-06-14T09:44:51;7.53;;;2.78;;
56927;SDS011;60850;52.502;13.426;2023-06-14T09:47:20;7.72;;;3.22;;
56927;SDS011;60850;52.502;13.426;2023-06-14T09:49:48;6.22;;;3.75;;
56927;SDS011;60850;52.502;13.426;2023-06-14T09:52:16;5.18;;;3.30;;
56927;SDS011;60850;52.502;13.426;2023-06-14T09:54:44;8.43;;;3.00;;
56927;SDS011;60850;52.502;13.426;2023-06-14T09:57:13;6.88;;;3.40;;
56927;SDS011;60850;52.502;13.426;2023-06-14T09:59:43;6.30;;;3.50;;
56927;SDS011;60850;52.502;13.426;2023-06-14T10:02:16;3.55;;;3.25;;
56927;SDS011;60850;52.502;13.426;2023-06-14T10:04:50;6.85;;;3.20;;
56927;SDS011;60850;52.502;13.426;2023-06-14T10:07:26;7.20;;;2.92;;
56927;SDS011;60850;52.502;13.426;2023-06-14T10:09:56;8.35;;;3.60;;
56927;SDS011;60850;52.502;13.426;2023-06-14T10:12:24;9.98;;;3.50;;
56927;SDS011;60850;52.502;13.426;2023-06-14T10:14:53;4.90;;;3.10;;
56927;SDS011;60850;52.502;13.426;2023-06-14T10:17:26;10.05;;;3.78;;
56927;SDS011;60850;52.502;13.426;2023-06-14T10:20:03;8.85;;;3.63;;
56927;SDS011;60850;52.502;13.426;2023-06-14T10:22:49;6.93;;;3.10;;
56927;SDS011;60850;52.502;13.426;2023-06-14T10:25:27;5.87;;;3.43;;
56927;SDS011;60850;52.502;13.426;2023-06-14T10:33:35;6.85;;;3.40;;
56927;SDS011;60850;52.502;13.426;2023-06-14T10:36:09;5.20;;;3.17;;
56927;SDS011;60850;52.502;13.426;2023-06-14T10:38:37;6.63;;;3.40;;
56927;SDS011;60850;52.502;13.426;2023-06-14T10:41:04;10.80;;;3.92;;
56927;SDS011;60850;52.502;13.426;2023-06-14T10:43:33;6.05;;;3.35;;
56927;SDS011;60850;52.502;13.426;2023-06-14T10:48:44;4.43;;;3.05;;
56927;SDS011;60850;52.502;13.426;2023-06-14T10:51:17;5.60;;;3.38;;
56927;SDS011;60850;52.502;13.426;2023-06-14T10:53:46;8.85;;;3.45;;
56927;SDS011;60850;52.502;13.426;2023-06-14T10:56:26;4.10;;;3.08;;
56927;SDS011;60850;52.502;13.426;2023-06-14T10:58:54;6.43;;;3.38;;
56927;SDS011;60850;52.502;13.426;2023-06-14T11:01:31;8.38;;;3.78;;
56927;SDS011;60850;52.502;13.426;2023-06-14T11:04:09;6.55;;;3.42;;
56927;SDS011;60850;52.502;13.426;2023-06-14T11:06:45;7.20;;;3.17;;
56927;SDS011;60850;52.502;13.426;2023-06-14T11:14:47;7.55;;;3.38;;
56927;SDS011;60850;52.502;13.426;2023-06-14T11:17:16;9.27;;;4.38;;
56927;SDS011;60850;52.502;13.426;2023-06-14T11:19:43;7.05;;;3.33;;
56927;SDS011;60850;52.502;13.426;2023-06-14T11:22:10;8.73;;;4.32;;
56927;SDS011;60850;52.502;13.426;2023-06-14T11:24:40;3.60;;;3.22;;
56927;SDS011;60850;52.502;13.426;2023-06-14T11:27:07;5.35;;;3.40;;
56927;SDS011;60850;52.502;13.426;2023-06-14T11:29:34;9.07;;;4.18;;
56927;SDS011;60850;52.502;13.426;2023-06-14T11:32:01;5.15;;;3.10;;
56927;SDS011;60850;52.502;13.426;2023-06-14T11:34:30;6.93;;;3.17;;
56927;SDS011;60850;52.502;13.426;2023-06-14T11:36:57;6.35;;;3.88;;
56927;SDS011;60850;52.502;13.426;2023-06-14T11:39:24;7.53;;;3.25;;
56927;SDS011;60850;52.502;13.426;2023-06-14T11:41:52;6.97;;;3.30;;
56927;SDS011;60850;52.502;13.426;2023-06-14T11:44:20;7.93;;;3.30;;
56927;SDS011;60850;52.502;13.426;2023-06-14T11:46:48;6.75;;;3.30;;
56927;SDS011;60850;52.502;13.426;2023-06-14T11:49:16;3.70;;;2.90;;
56927;SDS011;60850;52.502;13.426;2023-06-14T11:51:44;6.45;;;3.30;;
56927;SDS011;60850;52.502;13.426;2023-06-14T11:54:12;4.57;;;2.60;;
56927;SDS011;60850;52.502;13.426;2023-06-14T11:56:39;5.35;;;2.90;;
56927;SDS011;60850;52.502;13.426;2023-06-14T11:59:07;11.98;;;3.22;;
56927;SDS011;60850;52.502;13.426;2023-06-14T12:01:35;7.22;;;2.78;;
56927;SDS011;60850;52.502;13.426;2023-06-14T12:04:04;4.10;;;2.67;;
56927;SDS011;60850;52.502;13.426;2023-06-14T12:06:31;9.02;;;3.85;;
56927;SDS011;60850;52.502;13.426;2023-06-14T12:09:06;6.18;;;2.97;;
56927;SDS011;60850;52.502;13.426;2023-06-14T12:11:38;6.07;;;3.38;;
56927;SDS011;60850;52.502;13.426;2023-06-14T12:14:07;5.07;;;3.15;;
56927;SDS011;60850;52.502;13.426;2023-06-14T12:16:36;5.50;;;2.95;;
56927;SDS011;60850;52.502;13.426;2023-06-14T12:19:09;4.07;;;3.13;;
56927;SDS011;60850;52.502;13.426;2023-06-14T12:21:38;5.72;;;3.65;;
56927;SDS011;60850;52.502;13.426;2023-06-14T12:24:08;6.32;;;3.00;;
56927;SDS011;60850;52.502;13.426;2023-06-14T12:26:38;6.80;;;3.40;;
56927;SDS011;60850;52.502;13.426;2023-06-14T12:29:06;5.05;;;3.45;;
56927;SDS011;60850;52.502;13.426;2023-06-14T12:31:34;6.95;;;3.45;;
56927;SDS011;60850;52.502;13.426;2023-06-14T12:34:01;7.28;;;3.38;;
56927;SDS011;60850;52.502;13.426;2023-06-14T12:36:28;6.45;;;3.35;;
56927;SDS011;60850;52.502;13.426;2023-06-14T12:38:55;5.68;;;3.00;;
56927;SDS011;60850;52.502;13.426;2023-06-14T12:41:23;7.03;;;3.10;;
56927;SDS011;60850;52.502;13.426;2023-06-14T12:43:52;7.30;;;2.92;;
56927;SDS011;60850;52.502;13.426;2023-06-14T12:46:19;4.47;;;3.13;;
56927;SDS011;60850;52.502;13.426;2023-06-14T12:48:46;10.43;;;3.28;;
56927;SDS011;60850;52.502;13.426;2023-06-14T12:51:13;4.65;;;2.65;;
56927;SDS011;60850;52.502;13.426;2023-06-14T12:53:40;7.95;;;2.67;;
56927;SDS011;60850;52.502;13.426;2023-06-14T12:56:07;4.07;;;2.63;;
56927;SDS011;60850;52.502;13.426;2023-06-14T12:58:36;6.90;;;2.92;;
56927;SDS011;60850;52.502;13.426;2023-06-14T13:01:02;4.22;;;2.63;;
56927;SDS011;60850;52.502;13.426;2023-06-14T13:03:30;6.60;;;3.20;;
56927;SDS011;60850;52.502;13.426;2023-06-14T13:05:59;4.82;;;2.70;;
56927;SDS011;60850;52.502;13.426;2023-06-14T13:08:26;4.55;;;2.83;;
56927;SDS011;60850;52.502;13.426;2023-06-14T13:10:53;7.15;;;2.83;;
56927;SDS011;60850;52.502;13.426;2023-06-14T13:13:21;4.47;;;2.78;;
56927;SDS011;60850;52.502;13.426;2023-06-14T13:15:49;9.75;;;3.38;;
56927;SDS011;60850;52.502;13.426;2023-06-14T13:18:16;8.82;;;2.90;;
56927;SDS011;60850;52.502;13.426;2023-06-14T13:20:45;5.50;;;3.00;;
56927;SDS011;60850;52.502;13.426;2023-06-14T13:23:13;6.78;;;2.90;;
56927;SDS011;60850;52.502;13.426;2023-06-14T13:25:40;7.30;;;3.15;;
56927;SDS011;60850;52.502;13.426;2023-06-14T13:28:07;6.85;;;2.90;;
56927;SDS011;60850;52.502;13.426;2023-06-14T13:30:34;7.47;;;3.03;;
56927;SDS011;60850;52.502;13.426;2023-06-14T13:33:03;5.53;;;2.65;;
56927;SDS011;60850;52.502;13.426;2023-06-14T13:35:30;7.00;;;2.85;;
56927;SDS011;60850;52.502;13.426;2023-06-14T13:37:57;7.47;;;2.70;;
56927;SDS011;60850;52.502;13.426;2023-06-14T13:40:24;5.43;;;2.70;;
56927;SDS011;60850;52.502;13.426;2023-06-14T13:42:51;6.00;;;3.00;;
56927;SDS011;60850;52.502;13.426;2023-06-14T13:45:18;3.95;;;2.60;;
56927;SDS011;60850;52.502;13.426;2023-06-14T13:47:45;3.65;;;2.90;;
56927;SDS011;60850;52.502;13.426;2023-06-14T13:50:15;6.45;;;2.67;;
56927;SDS011;60850;52.502;13.426;2023-06-14T13:52:42;4.15;;;3.17;;
56927;SDS011;60850;52.502;13.426;2023-06-14T13:55:09;6.00;;;3.15;;
56927;SDS011;60850;52.502;13.426;2023-06-14T13:57:36;7.57;;;2.78;;
56927;SDS011;60850;52.502;13.426;2023-06-14T14:00:04;8.98;;;3.10;;
56927;SDS011;60850;52.502;13.426;2023-06-14T14:02:34;6.55;;;2.47;;
56927;SDS011;60850;52.502;13.426;2023-06-14T14:05:01;8.18;;;3.03;;
56927;SDS011;60850;52.502;13.426;2023-06-14T14:07:29;7.05;;;3.08;;
56927;SDS011;60850;52.502;13.426;2023-06-14T14:09:56;5.60;;;2.70;;
56927;SDS011;60850;52.502;13.426;2023-06-14T14:12:24;5.55;;;3.25;;
56927;SDS011;60850;52.502;13.426;2023-06-14T14:14:51;10.68;;;6.45;;
56927;SDS011;60850;52.502;13.426;2023-06-14T14:17:18;4.75;;;2.85;;
56927;SDS011;60850;52.502;13.426;2023-06-14T14:19:45;10.40;;;3.60;;
56927;SDS011;60850;52.502;13.426;2023-06-14T14:22:12;8.18;;;2.75;;
56927;SDS011;60850;52.502;13.426;2023-06-14T14:24:40;5.90;;;3.10;;
56927;SDS011;60850;52.502;13.426;2023-06-14T14:27:07;7.97;;;3.20;;
56927;SDS011;60850;52.502;13.426;2023-06-14T14:29:35;4.55;;;2.83;;
56927;SDS011;60850;52.502;13.426;2023-06-14T14:32:02;5.10;;;2.78;;
56927;SDS011;60850;52.502;13.426;2023-06-14T14:34:30;3.92;;;2.80;;
56927;SDS011;60850;52.502;13.426;2023-06-14T14:36:57;5.45;;;2.97;;
56927;SDS011;60850;52.502;13.426;2023-06-14T14:39:24;5.35;;;3.15;;
56927;SDS011;60850;52.502;13.426;2023-06-14T14:41:52;8.38;;;2.70;;
56927;SDS011;60850;52.502;13.426;2023-06-14T14:44:19;5.13;;;2.90;;
56927;SDS011;60850;52.502;13.426;2023-06-14T14:46:47;6.18;;;2.70;;
56927;SDS011;60850;52.502;13.426;2023-06-14T14:49:13;6.05;;;3.05;;
56927;SDS011;60850;52.502;13.426;2023-06-14T14:51:40;5.50;;;3.00;;
56927;SDS011;60850;52.502;13.426;2023-06-14T14:54:07;11.75;;;3.75;;
56927;SDS011;60850;52.502;13.426;2023-06-14T14:56:35;6.18;;;2.83;;